Santa Margherita — V7JA2 — position and weather

sailwx.info

Track history (hours):
 
Tides and Currents Weather Stations Pressure Air Temp Water Temp Dewpoint Dewpoint Depression Visibility Wind Speed Wind Dir Waves Ship Positions

Santa Margherita

Last reported at 2018-Mar-19 17:29 UTC. Time now 2018-Apr-20 11:01 UTC.
Position N 01°15' E 104°03'.
Warning: this ship's position is 31 days out of date.

Length 190 m; draft 7 m.

Type: Cargo ship. MMSI: 538090191.

Date/timePositionNaut miles runAvg speedWind from/ knotsBaromVisibWave heightAir tempDewpointWater temp
2018-Mar-19 17:29N 01°15' E 104°03'4 6.5
2018-Mar-19 16:56N 01°17' E 104°00'1 0.1
2018-Mar-19 08:53N 01°17' E 103°60'0 0.0
2018-Mar-19 08:17N 01°17' E 103°60'0 0.0
2018-Mar-19 07:35N 01°17' E 103°60'0 0.0
2018-Mar-19 00:21N 01°17' E 103°60'1 1.6
2018-Mar-18 23:57N 01°17' E 103°59'2 3.9
2018-Mar-18 23:30N 01°16' E 103°58'3 5.4
2018-Mar-18 23:00N 01°16' E 104°01'611.5
2018-Mar-18 22:27N 01°16' E 104°07'  
2018-Mar-12 13:36N 22°33' E 119°47'1 9.9
2018-Mar-12 13:30N 22°34' E 119°47'510.2
2018-Mar-12 13:00N 22°38' E 119°51'610.5
2018-Mar-12 12:28N 22°43' E 119°53'511.0
2018-Mar-12 12:00N 22°48' E 119°53'610.9
2018-Mar-12 11:29N 22°54' E 119°53'510.3
2018-Mar-12 11:00N 22°59' E 119°53'4 9.2
2018-Mar-12 10:31N 23°03' E 119°53'4 8.5
2018-Mar-12 10:00N 23°07' E 119°53'4 8.1
2018-Mar-12 09:31N 23°11' E 119°53'4 8.0
2018-Mar-12 08:57N 23°16' E 119°53'4 8.1
2018-Mar-12 08:30N 23°19' E 119°53'4 8.4
2018-Mar-12 08:01N 23°24' E 119°53'4 8.8
2018-Mar-12 07:30N 23°28' E 119°53'5 9.1
2018-Mar-12 07:00N 23°33' E 119°53'5 9.1
2018-Mar-12 06:29N 23°37' E 119°53'4 9.2
2018-Mar-12 06:00N 23°42' E 119°53'5 9.7
2018-Mar-12 05:27N 23°47' E 119°53'10610.8
2018-Mar-11 19:42N 25°26' E 120°33'210.9
2018-Mar-11 19:30N 25°28' E 120°35'31810.5
2018-Mar-10 13:04N 30°16' E 123°09'30 7.7
2018-Mar-10 09:07N 30°39' E 122°47'20 6.5
2018-Mar-10 06:01N 30°55' E 122°32'5 9.9
2018-Mar-10 05:29N 30°60' E 122°31'5 9.2
2018-Mar-10 04:59N 31°04' E 122°29'4 8.2
2018-Mar-10 04:30N 31°06' E 122°25'510.6
2018-Mar-10 04:00N 31°06' E 122°19'612.2
2018-Mar-10 03:29N 31°09' E 122°13'613.2
2018-Mar-10 03:00N 31°13' E 122°07'713.4
2018-Mar-10 02:30N 31°15' E 121°59'713.3
2018-Mar-10 01:58N 31°16' E 121°51'1612.0
2018-Mar-10 00:38N 31°23' E 121°34'511.0
2018-Mar-10 00:13N 31°26' E 121°30'2 9.9
2018-Mar-10 00:00N 31°27' E 121°28'  
Track history (hours):
 
Tides and Currents Weather Stations Pressure Air Temp Water Temp Dewpoint Dewpoint Depression Visibility Wind Speed Wind Dir Waves Ship Positions

Santa Margherita

Last reported at 2018-Mar-19 17:29 UTC. Time now 2018-Apr-20 11:01 UTC.
Position N 01°15' E 104°03'.
Warning: this ship's position is 31 days out of date.

Length 190 m; draft 7 m.

Type: Cargo ship. MMSI: 538090191.

Date/timePositionNaut miles runAvg speedWind from/ knotsBaromVisibWave heightAir tempDewpointWater temp
2018-Mar-19 17:29N 01°15' E 104°03'4 6.5
2018-Mar-19 16:56N 01°17' E 104°00'1 0.1
2018-Mar-19 08:53N 01°17' E 103°60'0 0.0
2018-Mar-19 08:17N 01°17' E 103°60'0 0.0
2018-Mar-19 07:35N 01°17' E 103°60'0 0.0
2018-Mar-19 00:21N 01°17' E 103°60'1 1.6
2018-Mar-18 23:57N 01°17' E 103°59'2 3.9
2018-Mar-18 23:30N 01°16' E 103°58'3 5.4
2018-Mar-18 23:00N 01°16' E 104°01'611.5
2018-Mar-18 22:27N 01°16' E 104°07'  
2018-Mar-12 13:36N 22°33' E 119°47'1 9.9
2018-Mar-12 13:30N 22°34' E 119°47'510.2
2018-Mar-12 13:00N 22°38' E 119°51'610.5
2018-Mar-12 12:28N 22°43' E 119°53'511.0
2018-Mar-12 12:00N 22°48' E 119°53'610.9
2018-Mar-12 11:29N 22°54' E 119°53'510.3
2018-Mar-12 11:00N 22°59' E 119°53'4 9.2
2018-Mar-12 10:31N 23°03' E 119°53'4 8.5
2018-Mar-12 10:00N 23°07' E 119°53'4 8.1
2018-Mar-12 09:31N 23°11' E 119°53'4 8.0
2018-Mar-12 08:57N 23°16' E 119°53'4 8.1
2018-Mar-12 08:30N 23°19' E 119°53'4 8.4
2018-Mar-12 08:01N 23°24' E 119°53'4 8.8
2018-Mar-12 07:30N 23°28' E 119°53'5 9.1
2018-Mar-12 07:00N 23°33' E 119°53'5 9.1
2018-Mar-12 06:29N 23°37' E 119°53'4 9.2
2018-Mar-12 06:00N 23°42' E 119°53'5 9.7
2018-Mar-12 05:27N 23°47' E 119°53'10610.8
2018-Mar-11 19:42N 25°26' E 120°33'210.9
2018-Mar-11 19:30N 25°28' E 120°35'31810.5
2018-Mar-10 13:04N 30°16' E 123°09'30 7.7
2018-Mar-10 09:07N 30°39' E 122°47'20 6.5
2018-Mar-10 06:01N 30°55' E 122°32'5 9.9
2018-Mar-10 05:29N 30°60' E 122°31'5 9.2
2018-Mar-10 04:59N 31°04' E 122°29'4 8.2
2018-Mar-10 04:30N 31°06' E 122°25'510.6
2018-Mar-10 04:00N 31°06' E 122°19'612.2
2018-Mar-10 03:29N 31°09' E 122°13'613.2
2018-Mar-10 03:00N 31°13' E 122°07'713.4
2018-Mar-10 02:30N 31°15' E 121°59'713.3
2018-Mar-10 01:58N 31°16' E 121°51'1612.0
2018-Mar-10 00:38N 31°23' E 121°34'511.0
2018-Mar-10 00:13N 31°26' E 121°30'2 9.9
2018-Mar-10 00:00N 31°27' E 121°28'  

Dump ship's entire track history